createdAt,value
2022-10-13T00:01:41.126Z,101894.84
2022-10-13T00:04:10.480Z,101897.69
2022-10-13T00:06:39.775Z,101894.03
2022-10-13T00:09:09.196Z,101890.03
2022-10-13T00:11:38.431Z,101886.38
2022-10-13T00:14:08.351Z,101893.25
2022-10-13T00:16:38.453Z,101888.81
2022-10-13T00:19:11.691Z,101877.50
2022-10-13T00:21:43.541Z,101877.13
2022-10-13T00:24:16.043Z,101876.31
2022-10-13T00:26:45.291Z,101870.69
2022-10-13T00:29:21.528Z,101872.28
2022-10-13T00:31:50.871Z,101866.63
2022-10-13T00:34:20.114Z,101862.56
2022-10-13T00:36:49.368Z,101868.22
2022-10-13T00:39:18.675Z,101869.41
2022-10-13T00:41:48.248Z,101860.94
2022-10-13T00:44:54.697Z,101858.50
2022-10-13T00:47:24.443Z,101853.66
2022-10-13T00:49:55.614Z,101852.81
2022-10-13T00:52:28.249Z,101849.16
2022-10-13T00:54:59.254Z,101849.53
2022-10-13T00:57:29.087Z,101852.75
2022-10-13T00:59:59.027Z,101851.97
2022-10-13T01:02:34.223Z,101857.16
2022-10-13T01:05:06.151Z,101862.38
2022-10-13T01:07:37.813Z,101864.31
2022-10-13T01:10:07.724Z,101854.19
2022-10-13T01:12:45.063Z,101852.53
2022-10-13T01:15:30.805Z,101850.88
2022-10-13T01:18:27.404Z,101852.47
2022-10-13T01:21:08.931Z,101840.69
2022-10-13T01:23:44.216Z,101841.06
2022-10-13T01:26:51.110Z,101842.66
2022-10-13T01:30:06.012Z,101842.97
2022-10-13T01:32:49.413Z,101844.53
2022-10-13T01:35:33.914Z,101847.72
2022-10-13T01:38:15.387Z,101838.75
2022-10-13T01:40:58.708Z,101839.09
2022-10-13T01:43:36.645Z,101831.78
2022-10-13T01:46:21.013Z,101830.13
2022-10-13T01:48:51.687Z,101825.19
2022-10-13T01:51:23.399Z,101827.59
2022-10-13T01:53:55.944Z,101832.00
2022-10-13T01:56:25.290Z,101820.25
2022-10-13T01:58:55.928Z,101823.03
2022-10-13T02:01:44.293Z,101821.44
2022-10-13T02:04:39.426Z,101829.06
2022-10-13T02:07:22.179Z,101824.19
2022-10-13T02:10:14.929Z,101821.72
2022-10-13T02:12:51.436Z,101824.09
2022-10-13T02:15:25.621Z,101808.69
2022-10-13T02:17:56.219Z,101816.31
2022-10-13T02:20:25.929Z,101813.44
2022-10-13T02:23:01.527Z,101814.97
2022-10-13T02:25:32.458Z,101813.34
2022-10-13T02:28:04.722Z,101815.31
2022-10-13T02:30:38.465Z,101803.19
2022-10-13T02:33:08.147Z,101807.56
2022-10-13T02:35:37.964Z,101799.06
2022-10-13T02:38:07.516Z,101802.28
2022-10-13T02:40:36.871Z,101795.03
2022-10-13T02:43:06.678Z,101797.50
2022-10-13T02:45:35.939Z,101783.38
2022-10-13T02:48:05.428Z,101790.97
2022-10-13T02:50:34.892Z,101782.47
2022-10-13T02:53:04.178Z,101768.84
2022-10-13T02:55:33.449Z,101785.69
2022-10-13T02:58:02.739Z,101798.53
2022-10-13T03:00:32.013Z,101800.16
2022-10-13T03:03:01.548Z,101779.16
2022-10-13T03:05:30.781Z,101786.31
2022-10-13T03:08:00.145Z,101783.88
2022-10-13T03:10:29.602Z,101783.97
2022-10-13T03:12:59.664Z,101767.06
2022-10-13T03:15:28.978Z,101770.91
2022-10-13T03:18:01.602Z,101770.19
2022-10-13T03:20:30.928Z,101764.47
2022-10-13T03:23:00.282Z,101768.97
2022-10-13T03:25:29.657Z,101772.66
2022-10-13T03:27:59.323Z,101767.00
2022-10-13T03:30:29.154Z,101759.22
2022-10-13T03:32:58.631Z,101764.53
2022-10-13T03:35:27.919Z,101762.53
2022-10-13T03:37:57.214Z,101754.03
2022-10-13T03:40:27.367Z,101750.00
2022-10-13T03:42:56.894Z,101749.69
2022-10-13T03:45:26.682Z,101746.91
2022-10-13T03:47:55.934Z,101747.31
2022-10-13T03:50:25.191Z,101748.50
2022-10-13T03:52:55.771Z,101749.34
2022-10-13T03:55:25.227Z,101748.16
2022-10-13T03:57:54.592Z,101743.69
2022-10-13T04:00:24.019Z,101740.06
2022-10-13T04:02:53.278Z,101752.56
2022-10-13T04:05:22.536Z,101749.34
2022-10-13T04:07:51.851Z,101751.81
2022-10-13T04:10:22.431Z,101748.16
2022-10-13T04:12:52.155Z,101744.91
2022-10-13T04:15:21.412Z,101746.53
2022-10-13T04:17:50.870Z,101748.59
2022-10-13T04:20:20.339Z,101742.06
2022-10-13T04:22:49.627Z,101743.25
2022-10-13T04:25:18.918Z,101733.09
2022-10-13T04:27:48.518Z,101733.09
2022-10-13T04:30:17.810Z,101730.69
2022-10-13T04:32:47.137Z,101730.31
2022-10-13T04:35:17.616Z,101726.72
2022-10-13T04:37:46.923Z,101715.38
2022-10-13T04:40:16.254Z,101710.44
2022-10-13T04:42:45.552Z,101712.63
2022-10-13T04:45:15.121Z,101715.00
2022-10-13T04:47:45.431Z,101707.69
2022-10-13T04:50:14.736Z,101700.41
2022-10-13T04:52:44.171Z,101711.25
2022-10-13T04:55:13.776Z,101700.75
2022-10-13T04:57:43.452Z,101701.50
2022-10-13T05:00:14.055Z,101703.06
2022-10-13T05:02:44.563Z,101697.47
2022-10-13T05:05:15.255Z,101696.22
2022-10-13T05:07:51.250Z,101699.03
2022-10-13T05:10:23.828Z,101700.63
2022-10-13T05:12:54.901Z,101698.16
2022-10-13T05:16:15.645Z,101683.69
2022-10-13T05:18:29.065Z,101685.97
2022-10-13T05:21:08.876Z,101690.38
2022-10-13T05:23:41.900Z,101682.81
2022-10-13T05:26:18.495Z,101681.88
2022-10-13T05:28:52.312Z,101688.75
2022-10-13T05:31:25.642Z,101693.25
2022-10-13T05:33:57.687Z,101699.22
2022-10-13T05:36:31.328Z,101697.19
2022-10-13T05:39:10.356Z,101699.66
2022-10-13T05:41:41.153Z,101698.09
2022-10-13T05:44:18.341Z,101697.72
2022-10-13T05:47:02.507Z,101695.72
2022-10-13T05:49:36.809Z,101683.56
2022-10-13T05:52:11.945Z,101705.34
2022-10-13T05:54:49.645Z,101698.16
2022-10-13T05:57:25.526Z,101717.44
2022-10-13T06:00:05.372Z,101702.97
2022-10-13T06:02:58.839Z,101713.34
2022-10-13T06:05:32.933Z,101701.13
2022-10-13T06:08:03.786Z,101695.53
2022-10-13T06:10:33.887Z,101703.47
2022-10-13T06:13:03.741Z,101701.00
2022-10-13T06:15:33.367Z,101681.50
2022-10-13T06:18:10.957Z,101691.16
2022-10-13T06:20:50.557Z,101681.56
2022-10-13T06:23:35.013Z,101691.16
2022-10-13T06:26:05.292Z,101692.81
2022-10-13T06:28:46.286Z,101691.16
2022-10-13T06:31:25.643Z,101687.84
2022-10-13T06:34:05.816Z,101697.44
2022-10-13T06:36:36.532Z,101686.81
2022-10-13T06:39:06.683Z,101688.44
2022-10-13T06:41:36.673Z,101676.75
2022-10-13T06:44:07.100Z,101679.38
2022-10-13T06:46:37.081Z,101676.84
2022-10-13T06:49:10.868Z,101683.63
2022-10-13T06:51:41.160Z,101688.38
2022-10-13T06:54:11.084Z,101680.53
2022-10-13T06:56:41.130Z,101677.03
2022-10-13T06:59:13.675Z,101671.66
2022-10-13T07:01:47.124Z,101673.56
2022-10-13T07:04:19.170Z,101683.88
2022-10-13T07:06:48.982Z,101686.09
2022-10-13T07:09:20.310Z,101694.56
2022-10-13T07:11:50.482Z,101688.44
2022-10-13T07:14:20.219Z,101702.19
2022-10-13T07:16:52.672Z,101686.38
2022-10-13T07:19:22.432Z,101694.56
2022-10-13T07:21:52.197Z,101681.16
2022-10-13T07:24:22.351Z,101684.44
2022-10-13T07:26:52.291Z,101680.38
2022-10-13T07:29:22.009Z,101689.22
2022-10-13T07:31:51.924Z,101686.75
2022-10-13T07:34:22.198Z,101695.63
2022-10-13T07:36:51.857Z,101686.66
2022-10-13T07:39:21.568Z,101689.88
2022-10-13T07:41:52.113Z,101688.94
2022-10-13T07:44:21.871Z,101677.78
2022-10-13T07:46:51.928Z,101679.72
2022-10-13T07:49:21.906Z,101684.88
2022-10-13T07:51:51.617Z,101679.66
2022-10-13T07:54:23.845Z,101687.19
2022-10-13T07:56:58.312Z,101683.56
2022-10-13T07:59:28.264Z,101688.06
2022-10-13T08:01:57.811Z,101682.03
2022-10-13T08:04:27.175Z,101692.66
2022-10-13T08:06:56.452Z,101681.47
2022-10-13T08:09:25.764Z,101687.06
2022-10-13T08:12:00.564Z,101691.63
2022-10-13T08:14:31.689Z,101692.06
2022-10-13T08:17:01.371Z,101692.13
2022-10-13T08:19:30.736Z,101688.56
2022-10-13T08:22:00.451Z,101693.88
2022-10-13T08:24:30.819Z,101690.53
2022-10-13T08:27:00.108Z,101692.84
2022-10-13T08:29:29.453Z,101684.69
2022-10-13T08:31:59.152Z,101674.59
2022-10-13T08:34:28.567Z,101682.41
2022-10-13T08:36:59.766Z,101679.88
2022-10-13T08:39:29.081Z,101693.31
2022-10-13T08:41:59.671Z,101677.22
2022-10-13T08:47:30.610Z,101676.78
2022-10-13T08:50:01.643Z,101678.31
2022-10-13T08:52:46.300Z,101678.03
2022-10-13T08:55:32.800Z,101667.09
2022-10-13T08:58:04.680Z,101687.06
2022-10-13T09:00:34.404Z,101684.66
2022-10-13T09:03:25.916Z,101678.97
2022-10-13T09:06:12.554Z,101668.31
2022-10-13T09:08:51.322Z,101673.00
2022-10-13T09:11:20.951Z,101676.59
2022-10-13T09:13:50.349Z,101671.97
2022-10-13T09:16:29.324Z,101671.88
2022-10-13T09:19:15.991Z,101664.63
2022-10-13T09:21:45.407Z,101661.66
2022-10-13T09:24:18.544Z,101652.31
2022-10-13T09:26:49.975Z,101646.94
2022-10-13T09:29:28.977Z,101644.72
2022-10-13T09:32:23.947Z,101651.38
2022-10-13T09:34:55.564Z,101646.63
2022-10-13T09:37:27.360Z,101656.00
2022-10-13T09:40:04.934Z,101647.94
2022-10-13T09:42:35.149Z,101641.81
2022-10-13T09:45:17.963Z,101640.00
2022-10-13T09:48:06.482Z,101639.09
2022-10-13T09:50:38.559Z,101644.09
2022-10-13T09:53:37.061Z,101633.63
2022-10-13T09:56:34.018Z,101637.50
2022-10-13T09:59:31.414Z,101641.50
2022-10-13T10:02:02.934Z,101646.16
2022-10-13T10:04:38.911Z,101636.38
2022-10-13T10:07:20.693Z,101639.91
2022-10-13T10:09:55.881Z,101633.19
2022-10-13T10:12:29.542Z,101630.91
2022-10-13T10:14:58.917Z,101641.13
2022-10-13T10:18:05.676Z,101636.81
2022-10-13T10:20:57.042Z,101630.91
2022-10-13T10:23:38.005Z,101632.16
2022-10-13T10:26:20.628Z,101628.59
2022-10-13T10:29:15.887Z,101629.66
2022-10-13T10:32:14.804Z,101630.69
2022-10-13T10:34:53.581Z,101640.47
2022-10-13T10:37:46.590Z,101637.50
2022-10-13T10:40:35.696Z,101624.75
2022-10-13T10:43:35.959Z,101632.16
2022-10-13T10:46:05.531Z,101630.00
2022-10-13T10:48:41.883Z,101635.34
2022-10-13T10:51:14.421Z,101632.59
2022-10-13T10:53:52.600Z,101633.41
2022-10-13T10:56:30.422Z,101626.44
2022-10-13T10:59:15.121Z,101626.09
2022-10-13T11:02:10.580Z,101633.19
2022-10-13T11:04:49.028Z,101627.25
2022-10-13T11:07:28.087Z,101617.47
2022-10-13T11:09:57.427Z,101630.69
2022-10-13T11:12:30.374Z,101622.25
2022-10-13T11:15:14.492Z,101615.66
2022-10-13T11:17:44.689Z,101609.81
2022-10-13T11:20:19.784Z,101617.09
2022-10-13T11:23:01.229Z,101605.72
2022-10-13T11:25:46.665Z,101611.28
2022-10-13T11:28:45.091Z,101604.69
2022-10-13T11:31:16.759Z,101596.50
2022-10-13T11:33:48.174Z,101592.38
2022-10-13T11:36:53.024Z,101589.88
2022-10-13T11:39:28.542Z,101579.16
2022-10-13T11:42:17.029Z,101564.91
2022-10-13T11:45:00.749Z,101574.16
2022-10-13T11:48:06.077Z,101568.47
2022-10-13T11:50:55.481Z,101561.16
2022-10-13T11:53:29.312Z,101570.72
2022-10-13T11:56:03.366Z,101559.22
2022-10-13T11:58:36.575Z,101570.25
2022-10-13T12:01:14.584Z,101558.44
2022-10-13T12:03:49.131Z,101564.47
2022-10-13T12:06:33.402Z,101568.13
2022-10-13T12:09:20.136Z,101558.88
2022-10-13T12:11:49.726Z,101562.44
2022-10-13T12:14:33.081Z,101556.06
2022-10-13T12:17:04.212Z,101542.72
2022-10-13T12:19:34.875Z,101554.69
2022-10-13T12:22:04.612Z,101557.31
2022-10-13T12:24:35.013Z,101552.44
2022-10-13T12:27:13.813Z,101547.41
2022-10-13T12:29:43.433Z,101550.72
2022-10-13T12:32:27.594Z,101549.81
2022-10-13T12:34:57.017Z,101540.91
2022-10-13T12:37:33.673Z,101544.34
2022-10-13T12:40:04.551Z,101551.84
2022-10-13T12:42:37.515Z,101543.22
2022-10-13T12:45:08.031Z,101554.47
2022-10-13T12:47:46.486Z,101563.13
2022-10-13T12:50:28.074Z,101560.88
2022-10-13T12:52:59.022Z,101544.03
2022-10-13T12:55:28.426Z,101543.91
2022-10-13T12:57:58.499Z,101555.63
2022-10-13T13:00:30.974Z,101542.50
2022-10-13T13:03:02.649Z,101547.31
2022-10-13T13:05:50.838Z,101556.00
2022-10-13T13:08:32.911Z,101557.47
2022-10-13T13:11:22.274Z,101547.31
2022-10-13T13:13:51.674Z,101544.34
2022-10-13T13:16:24.403Z,101542.06
2022-10-13T13:18:53.988Z,101552.19
2022-10-13T13:21:23.471Z,101545.59
2022-10-13T13:23:54.107Z,101528.75
2022-10-13T13:26:28.171Z,101542.19
2022-10-13T13:28:59.194Z,101540.72
2022-10-13T13:31:29.029Z,101535.03
2022-10-13T13:33:58.286Z,101541.31
2022-10-13T13:36:33.563Z,101535.16
2022-10-13T13:39:02.865Z,101540.06
2022-10-13T13:41:32.316Z,101535.44
2022-10-13T13:44:01.604Z,101530.41
2022-10-13T13:46:32.194Z,101533.19
2022-10-13T13:49:02.225Z,101530.66
2022-10-13T13:51:31.812Z,101523.47
2022-10-13T13:54:01.080Z,101521.88
2022-10-13T13:56:30.430Z,101515.31
2022-10-13T13:59:02.014Z,101512.91
2022-10-13T14:01:32.458Z,101512.91
2022-10-13T14:04:03.160Z,101516.97
2022-10-13T14:06:35.495Z,101519.13
2022-10-13T14:09:06.613Z,101507.09
2022-10-13T14:11:35.915Z,101508.34
2022-10-13T14:14:05.160Z,101511.41
2022-10-13T14:16:34.503Z,101501.75
2022-10-13T14:19:08.455Z,101510.59
2022-10-13T14:21:37.729Z,101508.34
2022-10-13T14:24:13.565Z,101498.56
2022-10-13T14:26:42.919Z,101501.06
2022-10-13T14:29:12.270Z,101503.00
2022-10-13T14:31:41.639Z,101503.00
2022-10-13T14:34:10.996Z,101499.22
2022-10-13T14:36:40.991Z,101501.75
2022-10-13T14:39:10.330Z,101496.06
2022-10-13T14:41:39.617Z,101496.06
2022-10-13T14:44:08.891Z,101494.44
2022-10-13T14:46:38.135Z,101497.88
2022-10-13T14:49:07.447Z,101488.06
2022-10-13T14:51:36.707Z,101493.09
2022-10-13T14:54:06.968Z,101490.25
2022-10-13T14:56:36.295Z,101489.91
2022-10-13T14:59:08.718Z,101482.03
2022-10-13T15:01:41.594Z,101486.63
2022-10-13T15:04:11.878Z,101475.69
2022-10-13T15:06:41.830Z,101476.06
2022-10-13T15:09:12.911Z,101476.06
2022-10-13T15:11:42.311Z,101484.03
2022-10-13T15:14:12.397Z,101479.25
2022-10-13T15:16:41.725Z,101473.22
2022-10-13T15:19:11.225Z,101480.97
2022-10-13T15:21:40.523Z,101479.47
2022-10-13T15:24:09.849Z,101474.88
2022-10-13T15:26:39.118Z,101466.97
2022-10-13T15:29:08.463Z,101470.34
2022-10-13T15:31:37.887Z,101471.59
2022-10-13T15:34:07.192Z,101467.63
2022-10-13T15:36:36.502Z,101469.09
2022-10-13T15:39:05.790Z,101467.50
2022-10-13T15:41:35.052Z,101475.69
2022-10-13T15:44:04.659Z,101468.03
2022-10-13T15:46:33.907Z,101471.34
2022-10-13T15:49:03.167Z,101472.84
2022-10-13T15:51:35.346Z,101466.47
2022-10-13T15:54:04.603Z,101465.66
2022-10-13T15:56:33.875Z,101469.53
2022-10-13T15:59:03.405Z,101471.56
2022-10-13T16:01:33.118Z,101462.59
2022-10-13T16:04:02.971Z,101469.53
2022-10-13T16:06:34.144Z,101472.03
2022-10-13T16:09:03.552Z,101471.69
2022-10-13T16:11:32.861Z,101470.75
2022-10-13T16:14:02.130Z,101462.69
2022-10-13T16:16:31.440Z,101475.56
2022-10-13T16:19:00.935Z,101469.06
2022-10-13T16:21:30.267Z,101461.00
2022-10-13T16:24:02.310Z,101467.56
2022-10-13T16:26:31.552Z,101469.41
2022-10-13T16:29:00.931Z,101462.91
2022-10-13T16:31:30.742Z,101472.78
2022-10-13T16:34:00.034Z,101469.16
2022-10-13T16:36:29.327Z,101463.94
2022-10-13T16:38:58.967Z,101466.31
2022-10-13T16:41:28.280Z,101461.63
2022-10-13T16:43:58.014Z,101472.88
2022-10-13T16:46:27.406Z,101469.94
2022-10-13T16:48:56.711Z,101461.41
2022-10-13T16:51:27.547Z,101464.25
2022-10-13T16:54:04.205Z,101468.00
2022-10-13T16:56:34.729Z,101452.97
2022-10-13T16:59:07.195Z,101467.31
2022-10-13T17:01:37.698Z,101461.63
2022-10-13T17:04:07.405Z,101460.16
2022-10-13T17:06:39.357Z,101462.66
2022-10-13T17:09:08.664Z,101466.28
2022-10-13T17:11:38.205Z,101469.34
2022-10-13T17:14:08.244Z,101470.56
2022-10-13T17:16:37.580Z,101476.81
2022-10-13T17:19:07.810Z,101473.97
2022-10-13T17:21:39.055Z,101477.63
2022-10-13T17:24:11.038Z,101472.03
2022-10-13T17:26:40.371Z,101484.19
2022-10-13T17:29:09.716Z,101476.31
2022-10-13T17:31:41.475Z,101485.91
2022-10-13T17:34:10.941Z,101486.09
2022-10-13T17:36:40.223Z,101486.53
2022-10-13T17:39:14.308Z,101490.19
2022-10-13T17:41:43.727Z,101486.09
2022-10-13T17:44:13.330Z,101488.94
2022-10-13T17:46:42.680Z,101481.66
2022-10-13T17:49:14.385Z,101490.19
2022-10-13T17:51:45.945Z,101484.94
2022-10-13T17:54:16.765Z,101491.09
2022-10-13T17:56:47.479Z,101501.75
2022-10-13T17:59:18.504Z,101504.59
2022-10-13T18:01:48.326Z,101502.66
2022-10-13T18:04:22.366Z,101501.75
2022-10-13T18:06:51.702Z,101498.91
2022-10-13T18:09:24.239Z,101500.16
2022-10-13T18:11:56.475Z,101502.09
2022-10-13T18:14:27.194Z,101503.88
2022-10-13T18:16:56.849Z,101503.88
2022-10-13T18:19:26.252Z,101501.59
2022-10-13T18:21:55.642Z,101508.84
2022-10-13T18:24:25.232Z,101505.13
2022-10-13T18:26:55.804Z,101499.75
2022-10-13T18:29:26.364Z,101505.22
2022-10-13T18:31:57.766Z,101509.19
2022-10-13T18:34:27.183Z,101509.56
2022-10-13T18:36:56.813Z,101509.91
2022-10-13T18:39:29.079Z,101509.00
2022-10-13T18:42:02.205Z,101505.03
2022-10-13T18:44:36.494Z,101507.97
2022-10-13T18:47:06.952Z,101507.63
2022-10-13T18:49:37.262Z,101515.69
2022-10-13T18:52:07.348Z,101508.44
2022-10-13T18:54:40.431Z,101516.84
2022-10-13T18:57:09.711Z,101513.19
2022-10-13T18:59:39.061Z,101515.25
2022-10-13T19:02:08.426Z,101513.66
2022-10-13T19:04:38.983Z,101526.94
2022-10-13T19:07:08.700Z,101525.00
2022-10-13T19:09:37.991Z,101529.44
2022-10-13T19:12:07.422Z,101529.00
2022-10-13T19:14:36.678Z,101530.25
2022-10-13T19:17:06.037Z,101526.06
2022-10-13T19:19:38.938Z,101537.09
2022-10-13T19:22:09.855Z,101533.69
2022-10-13T19:24:39.223Z,101528.47
2022-10-13T19:27:08.494Z,101529.44
2022-10-13T19:29:38.811Z,101518.53
2022-10-13T19:32:08.375Z,101516.16
2022-10-13T19:34:37.981Z,101519.69
2022-10-13T19:37:08.595Z,101522.06
2022-10-13T19:39:37.872Z,101527.84
2022-10-13T19:42:07.165Z,101522.28
2022-10-13T19:44:36.671Z,101502.31
2022-10-13T19:47:06.072Z,101531.25
2022-10-13T19:49:35.894Z,101530.88
2022-10-13T19:52:05.287Z,101537.81
2022-10-13T19:54:35.781Z,101531.66
2022-10-13T19:57:05.253Z,101531.94
2022-10-13T19:59:34.549Z,101536.94
2022-10-13T20:02:04.068Z,101532.94
2022-10-13T20:04:33.364Z,101542.59
2022-10-13T20:07:02.720Z,101541.00
2022-10-13T20:09:32.122Z,101469.16
2022-10-13T20:12:01.453Z,101535.31
2022-10-13T20:14:32.328Z,101540.53
2022-10-13T20:17:01.708Z,101530.19
2022-10-13T20:19:31.071Z,101535.94
2022-10-13T20:22:01.712Z,101531.81
2022-10-13T20:24:31.101Z,101540.44
2022-10-13T20:27:00.407Z,101542.06
2022-10-13T20:29:29.752Z,101540.19
2022-10-13T20:31:59.144Z,101544.19
2022-10-13T20:34:28.469Z,101548.28
2022-10-13T20:36:57.736Z,101542.94
2022-10-13T20:39:30.882Z,101518.44
2022-10-13T20:42:00.305Z,101546.56
2022-10-13T20:44:29.755Z,101540.63
2022-10-13T20:46:59.025Z,101538.16
2022-10-13T20:49:30.097Z,101534.22
2022-10-13T20:51:59.388Z,101536.94
2022-10-13T20:54:28.749Z,101547.03
2022-10-13T20:56:58.816Z,101543.03
2022-10-13T20:59:28.181Z,101545.00
2022-10-13T21:01:57.507Z,101550.69
2022-10-13T21:04:26.827Z,101547.47
2022-10-13T21:06:56.238Z,101541.91
2022-10-13T21:09:25.535Z,101555.34
2022-10-13T21:11:54.788Z,101555.34
2022-10-13T21:14:24.067Z,101557.06
2022-10-13T21:16:53.399Z,101559.47
2022-10-13T21:19:23.134Z,101562.28
2022-10-13T21:21:52.397Z,101557.84
2022-10-13T21:24:21.713Z,101563.44
2022-10-13T21:26:51.020Z,101566.72
2022-10-13T21:29:20.327Z,101570.19
2022-10-13T21:31:49.608Z,101564.59
2022-10-13T21:34:18.917Z,101567.53
2022-10-13T21:36:48.253Z,101557.50
2022-10-13T21:39:17.582Z,101563.06
2022-10-13T21:41:47.017Z,101573.47
2022-10-13T21:44:16.782Z,101560.75
2022-10-13T21:46:46.290Z,101567.25
2022-10-13T21:49:15.660Z,101571.34
2022-10-13T21:51:45.332Z,101554.28
2022-10-13T21:54:16.200Z,101561.19
2022-10-13T21:56:45.552Z,101550.03
2022-10-13T21:59:15.827Z,101547.19
2022-10-13T22:01:45.850Z,101549.59
2022-10-13T22:04:16.633Z,101534.66
2022-10-13T22:06:46.442Z,101543.03
2022-10-13T22:09:16.433Z,101540.41
2022-10-13T22:11:46.630Z,101543.97
2022-10-13T22:14:16.240Z,101540.66
2022-10-13T22:16:48.665Z,101544.31
2022-10-13T22:19:19.121Z,101541.81
2022-10-13T22:21:50.378Z,101536.25
2022-10-13T22:24:22.426Z,101535.53
2022-10-13T22:26:53.368Z,101536.09
2022-10-13T22:29:24.358Z,101537.09
2022-10-13T22:32:00.058Z,101536.03
2022-10-13T22:34:29.570Z,101531.94
2022-10-13T22:36:58.908Z,101533.44
2022-10-13T22:39:28.303Z,101536.19
2022-10-13T22:41:57.611Z,101537.41
2022-10-13T22:44:26.922Z,101532.28
2022-10-13T22:46:56.268Z,101524.31
2022-10-13T22:49:25.599Z,101526.34
2022-10-13T22:51:55.007Z,101516.03
2022-10-13T22:54:24.301Z,101529.63
2022-10-13T22:56:55.196Z,101530.88
2022-10-13T22:59:24.618Z,101519.19
2022-10-13T23:01:53.887Z,101526.59
2022-10-13T23:04:23.244Z,101531.22
2022-10-13T23:06:52.595Z,101518.97
2022-10-13T23:09:21.907Z,101511.19
2022-10-13T23:11:52.168Z,101510.66
2022-10-13T23:14:24.364Z,101507.81
2022-10-13T23:16:53.684Z,101497.31
2022-10-13T23:19:23.035Z,101491.63
2022-10-13T23:21:52.426Z,101498.94
2022-10-13T23:24:21.719Z,101501.84
2022-10-13T23:26:51.035Z,101493.44
2022-10-13T23:29:20.331Z,101480.66
2022-10-13T23:31:49.739Z,101486.34
2022-10-13T23:34:19.173Z,101494.13
2022-10-13T23:36:48.691Z,101488.13
2022-10-13T23:39:18.066Z,101493.47
2022-10-13T23:41:47.379Z,101487.22
2022-10-13T23:44:16.769Z,101486.44
2022-10-13T23:46:46.092Z,101485.97
2022-10-13T23:49:17.675Z,101484.75
2022-10-13T23:51:47.255Z,101483.84
2022-10-13T23:54:16.544Z,101469.28
2022-10-13T23:56:45.809Z,101482.94
2022-10-13T23:59:15.120Z,101480.66
